Weather at Guangzhou Baiyun International Airport

Public forecast

Using degrees Celsius for public forecast. Weather courtesy of forecast.io.

Current aviation weather report (METAR) for Guangzhou Baiyun International Airport

Retrieved 2021/10/19 19:30 UTC (57 minutes ago):

ZGGG 191930Z 08002MPS 8000 SCT030 23/20 Q1016 NOSIG

Aviation forecast (TAF) for Guangzhou Baiyun International Airport

Forecast is more than 12 hours old.

Retrieved 2021/10/15 12:03 UTC (4 days ago):

TAF ZGGG 150906Z 1512/1612 36006MPS 6000 OVC030 TX26/1607Z TN20/1522Z TEMPO 1512/1518 4000 RA